sensor_id;sensor_type;location;lat;lon;timestamp;P1;durP1;ratioP1;P2;durP2;ratioP2
12373;SDS011;6251;51.762;8.660;2022-10-22T04:06:43;3.83;;;3.60;;
12373;SDS011;6251;51.762;8.660;2022-10-22T04:16:44;3.92;;;3.62;;
12373;SDS011;6251;51.762;8.660;2022-10-22T04:26:45;3.75;;;3.53;;
12373;SDS011;6251;51.762;8.660;2022-10-22T04:36:45;3.83;;;3.50;;
12373;SDS011;6251;51.762;8.660;2022-10-22T04:46:46;4.15;;;3.70;;
12373;SDS011;6251;51.762;8.660;2022-10-22T04:56:47;4.10;;;3.80;;
12373;SDS011;6251;51.762;8.660;2022-10-22T05:06:47;3.83;;;3.47;;
12373;SDS011;6251;51.762;8.660;2022-10-22T05:16:48;6.30;;;4.00;;
12373;SDS011;6251;51.762;8.660;2022-10-22T05:26:50;6.10;;;4.47;;
12373;SDS011;6251;51.762;8.660;2022-10-22T05:36:51;7.65;;;5.18;;
12373;SDS011;6251;51.762;8.660;2022-10-22T05:46:52;4.37;;;3.97;;
12373;SDS011;6251;51.762;8.660;2022-10-22T05:56:53;4.80;;;4.10;;
12373;SDS011;6251;51.762;8.660;2022-10-22T06:06:54;4.20;;;3.72;;
12373;SDS011;6251;51.762;8.660;2022-10-22T06:16:58;3.95;;;3.65;;
12373;SDS011;6251;51.762;8.660;2022-10-22T06:26:59;4.25;;;3.95;;
12373;SDS011;6251;51.762;8.660;2022-10-22T06:36:59;4.70;;;4.30;;
12373;SDS011;6251;51.762;8.660;2022-10-22T06:47:00;3.85;;;3.60;;
12373;SDS011;6251;51.762;8.660;2022-10-22T06:57:01;4.10;;;3.80;;
12373;SDS011;6251;51.762;8.660;2022-10-22T07:07:01;4.20;;;3.80;;
12373;SDS011;6251;51.762;8.660;2022-10-22T07:17:02;4.05;;;3.72;;
12373;SDS011;6251;51.762;8.660;2022-10-22T07:27:03;4.37;;;4.00;;
12373;SDS011;6251;51.762;8.660;2022-10-22T07:37:03;4.37;;;3.97;;
12373;SDS011;6251;51.762;8.660;2022-10-22T07:47:04;4.65;;;4.35;;
12373;SDS011;6251;51.762;8.660;2022-10-22T07:57:04;4.67;;;4.27;;
12373;SDS011;6251;51.762;8.660;2022-10-22T08:07:05;6.53;;;4.50;;
12373;SDS011;6251;51.762;8.660;2022-10-22T08:17:05;4.53;;;4.12;;
12373;SDS011;6251;51.762;8.660;2022-10-22T08:27:06;8.75;;;5.18;;
12373;SDS011;6251;51.762;8.660;2022-10-22T08:37:07;7.28;;;5.37;;
12373;SDS011;6251;51.762;8.660;2022-10-22T08:57:57;5.10;;;4.60;;
12373;SDS011;6251;51.762;8.660;2022-10-22T09:08:08;7.00;;;5.30;;
12373;SDS011;6251;51.762;8.660;2022-10-22T09:18:16;5.85;;;5.35;;
12373;SDS011;6251;51.762;8.660;2022-10-22T09:28:39;6.47;;;4.22;;
12373;SDS011;6251;51.762;8.660;2022-10-22T09:38:48;5.65;;;4.00;;
12373;SDS011;6251;51.762;8.660;2022-10-22T09:59:15;6.00;;;3.33;;
12373;SDS011;6251;51.762;8.660;2022-10-22T10:09:17;6.10;;;3.30;;
12373;SDS011;6251;51.762;8.660;2022-10-22T10:19:24;8.60;;;3.22;;
12373;SDS011;6251;51.762;8.660;2022-10-22T10:50:24;5.97;;;2.62;;
12373;SDS011;6251;51.762;8.660;2022-10-22T11:00:26;6.35;;;2.60;;
12373;SDS011;6251;51.762;8.660;2022-10-22T11:10:37;2.55;;;2.33;;
12373;SDS011;6251;51.762;8.660;2022-10-22T11:21:00;6.10;;;2.75;;
12373;SDS011;6251;51.762;8.660;2022-10-22T11:31:17;6.22;;;3.42;;
12373;SDS011;6251;51.762;8.660;2022-10-22T11:41:18;5.97;;;3.67;;
12373;SDS011;6251;51.762;8.660;2022-10-22T11:51:37;5.47;;;3.80;;
12373;SDS011;6251;51.762;8.660;2022-10-22T12:01:40;6.70;;;4.12;;
12373;SDS011;6251;51.762;8.660;2022-10-22T12:11:45;4.35;;;3.58;;
12373;SDS011;6251;51.762;8.660;2022-10-22T12:21:53;5.25;;;3.72;;
12373;SDS011;6251;51.762;8.660;2022-10-22T12:32:00;5.90;;;3.58;;
12373;SDS011;6251;51.762;8.660;2022-10-22T12:42:03;3.35;;;2.85;;
12373;SDS011;6251;51.762;8.660;2022-10-22T12:52:06;4.18;;;2.65;;
12373;SDS011;6251;51.762;8.660;2022-10-22T13:02:16;3.67;;;3.25;;
12373;SDS011;6251;51.762;8.660;2022-10-22T13:12:23;4.12;;;3.42;;
12373;SDS011;6251;51.762;8.660;2022-10-22T13:22:35;3.25;;;2.95;;
12373;SDS011;6251;51.762;8.660;2022-10-22T13:32:37;3.22;;;2.92;;
12373;SDS011;6251;51.762;8.660;2022-10-22T13:42:39;2.92;;;2.67;;
12373;SDS011;6251;51.762;8.660;2022-10-22T13:52:41;5.40;;;2.72;;
12373;SDS011;6251;51.762;8.660;2022-10-22T14:02:48;2.90;;;2.42;;
12373;SDS011;6251;51.762;8.660;2022-10-22T14:12:52;3.05;;;1.90;;
12373;SDS011;6251;51.762;8.660;2022-10-22T14:22:53;2.75;;;1.80;;
12373;SDS011;6251;51.762;8.660;2022-10-22T14:32:53;3.78;;;2.40;;
12373;SDS011;6251;51.762;8.660;2022-10-22T14:42:56;2.53;;;2.33;;
12373;SDS011;6251;51.762;8.660;2022-10-22T14:52:57;6.62;;;2.70;;
12373;SDS011;6251;51.762;8.660;2022-10-22T15:02:58;3.22;;;2.67;;
12373;SDS011;6251;51.762;8.660;2022-10-22T15:12:59;2.85;;;2.65;;
12373;SDS011;6251;51.762;8.660;2022-10-22T15:23:00;2.60;;;2.40;;
12373;SDS011;6251;51.762;8.660;2022-10-22T15:33:01;4.10;;;2.73;;
12373;SDS011;6251;51.762;8.660;2022-10-22T15:43:01;2.17;;;2.03;;
12373;SDS011;6251;51.762;8.660;2022-10-22T15:53:02;2.47;;;1.73;;
12373;SDS011;6251;51.762;8.660;2022-10-22T16:03:03;4.62;;;2.50;;
12373;SDS011;6251;51.762;8.660;2022-10-22T16:13:03;4.37;;;1.80;;
12373;SDS011;6251;51.762;8.660;2022-10-22T16:23:04;1.62;;;1.52;;
12373;SDS011;6251;51.762;8.660;2022-10-22T16:33:05;2.20;;;1.77;;
12373;SDS011;6251;51.762;8.660;2022-10-22T16:43:07;1.50;;;1.40;;
12373;SDS011;6251;51.762;8.660;2022-10-22T16:53:07;1.90;;;1.80;;
12373;SDS011;6251;51.762;8.660;2022-10-22T17:03:09;2.20;;;2.00;;
12373;SDS011;6251;51.762;8.660;2022-10-22T17:13:10;4.00;;;1.98;;
12373;SDS011;6251;51.762;8.660;2022-10-22T17:23:11;3.00;;;2.80;;
12373;SDS011;6251;51.762;8.660;2022-10-22T17:33:11;2.83;;;2.70;;
12373;SDS011;6251;51.762;8.660;2022-10-22T17:43:12;3.80;;;2.80;;
12373;SDS011;6251;51.762;8.660;2022-10-22T17:53:12;5.18;;;3.53;;
12373;SDS011;6251;51.762;8.660;2022-10-22T18:03:13;4.05;;;3.70;;
12373;SDS011;6251;51.762;8.660;2022-10-22T18:13:13;5.57;;;4.47;;
12373;SDS011;6251;51.762;8.660;2022-10-22T18:23:14;7.75;;;5.40;;
12373;SDS011;6251;51.762;8.660;2022-10-22T18:33:15;10.07;;;6.10;;
12373;SDS011;6251;51.762;8.660;2022-10-22T18:43:17;16.85;;;6.65;;
12373;SDS011;6251;51.762;8.660;2022-10-22T18:53:18;7.87;;;5.80;;
12373;SDS011;6251;51.762;8.660;2022-10-22T19:03:18;7.75;;;6.32;;
12373;SDS011;6251;51.762;8.660;2022-10-22T19:13:19;10.90;;;7.97;;
12373;SDS011;6251;51.762;8.660;2022-10-22T19:23:22;10.07;;;8.40;;
12373;SDS011;6251;51.762;8.660;2022-10-22T19:33:23;8.60;;;7.70;;
12373;SDS011;6251;51.762;8.660;2022-10-22T19:43:25;14.65;;;10.52;;
12373;SDS011;6251;51.762;8.660;2022-10-22T19:53:28;15.52;;;11.32;;
12373;SDS011;6251;51.762;8.660;2022-10-22T20:03:30;11.88;;;9.80;;
12373;SDS011;6251;51.762;8.660;2022-10-22T20:13:32;14.23;;;9.25;;
12373;SDS011;6251;51.762;8.660;2022-10-22T20:23:33;8.45;;;7.30;;
12373;SDS011;6251;51.762;8.660;2022-10-22T20:33:34;6.35;;;5.60;;
12373;SDS011;6251;51.762;8.660;2022-10-22T20:43:35;7.45;;;6.10;;
12373;SDS011;6251;51.762;8.660;2022-10-22T21:04:16;12.20;;;9.55;;
